sensor_id;sensor_type;location;lat;lon;timestamp;P1;durP1;ratioP1;P2;durP2;ratioP2
57225;SDS011;43082;43.568;22.256;2023-11-21T00:00:36;39.45;;;26.25;;
57225;SDS011;43082;43.568;22.256;2023-11-21T00:03:01;47.20;;;30.58;;
57225;SDS011;43082;43.568;22.256;2023-11-21T00:05:27;46.78;;;30.80;;
57225;SDS011;43082;43.568;22.256;2023-11-21T00:07:52;47.53;;;32.03;;
57225;SDS011;43082;43.568;22.256;2023-11-21T00:10:18;43.38;;;30.27;;
57225;SDS011;43082;43.568;22.256;2023-11-21T00:12:43;49.15;;;35.15;;
57225;SDS011;43082;43.568;22.256;2023-11-21T00:15:09;44.78;;;31.08;;
57225;SDS011;43082;43.568;22.256;2023-11-21T00:17:36;45.72;;;30.75;;
57225;SDS011;43082;43.568;22.256;2023-11-21T00:20:01;40.55;;;29.40;;
57225;SDS011;43082;43.568;22.256;2023-11-21T00:22:26;41.85;;;29.58;;
57225;SDS011;43082;43.568;22.256;2023-11-21T00:24:51;48.67;;;33.22;;
57225;SDS011;43082;43.568;22.256;2023-11-21T00:27:17;34.45;;;21.95;;
57225;SDS011;43082;43.568;22.256;2023-11-21T00:29:42;37.22;;;24.48;;
57225;SDS011;43082;43.568;22.256;2023-11-21T00:32:08;38.63;;;26.05;;
57225;SDS011;43082;43.568;22.256;2023-11-21T00:34:34;44.17;;;29.13;;
57225;SDS011;43082;43.568;22.256;2023-11-21T00:36:59;40.47;;;26.55;;
57225;SDS011;43082;43.568;22.256;2023-11-21T00:39:25;40.45;;;28.08;;
57225;SDS011;43082;43.568;22.256;2023-11-21T00:41:51;49.03;;;31.58;;
57225;SDS011;43082;43.568;22.256;2023-11-21T00:44:17;50.33;;;34.35;;
57225;SDS011;43082;43.568;22.256;2023-11-21T00:46:42;46.92;;;34.28;;
57225;SDS011;43082;43.568;22.256;2023-11-21T00:49:07;48.75;;;32.25;;
57225;SDS011;43082;43.568;22.256;2023-11-21T00:51:33;43.58;;;31.20;;
57225;SDS011;43082;43.568;22.256;2023-11-21T00:53:58;53.17;;;33.63;;
57225;SDS011;43082;43.568;22.256;2023-11-21T00:56:23;53.88;;;32.53;;
57225;SDS011;43082;43.568;22.256;2023-11-21T00:58:49;41.33;;;26.95;;
57225;SDS011;43082;43.568;22.256;2023-11-21T01:01:16;73.55;;;45.75;;
57225;SDS011;43082;43.568;22.256;2023-11-21T01:03:41;56.97;;;36.83;;
57225;SDS011;43082;43.568;22.256;2023-11-21T01:06:07;68.25;;;42.42;;
57225;SDS011;43082;43.568;22.256;2023-11-21T01:08:33;62.67;;;42.40;;
57225;SDS011;43082;43.568;22.256;2023-11-21T01:10:58;60.22;;;38.38;;
57225;SDS011;43082;43.568;22.256;2023-11-21T01:13:23;49.03;;;32.53;;
57225;SDS011;43082;43.568;22.256;2023-11-21T01:15:53;51.65;;;32.72;;
57225;SDS011;43082;43.568;22.256;2023-11-21T01:18:19;45.22;;;28.05;;
57225;SDS011;43082;43.568;22.256;2023-11-21T01:20:44;40.22;;;24.73;;
57225;SDS011;43082;43.568;22.256;2023-11-21T01:23:10;39.45;;;26.25;;
57225;SDS011;43082;43.568;22.256;2023-11-21T01:25:36;48.55;;;33.03;;
57225;SDS011;43082;43.568;22.256;2023-11-21T01:28:01;42.75;;;27.58;;
57225;SDS011;43082;43.568;22.256;2023-11-21T01:30:27;36.35;;;25.70;;
57225;SDS011;43082;43.568;22.256;2023-11-21T01:32:52;39.45;;;27.75;;
57225;SDS011;43082;43.568;22.256;2023-11-21T01:35:17;36.45;;;26.25;;
57225;SDS011;43082;43.568;22.256;2023-11-21T01:37:42;38.90;;;27.73;;
57225;SDS011;43082;43.568;22.256;2023-11-21T01:40:08;33.85;;;24.30;;
57225;SDS011;43082;43.568;22.256;2023-11-21T01:42:38;30.38;;;21.90;;
57225;SDS011;43082;43.568;22.256;2023-11-21T01:45:03;26.52;;;18.98;;
57225;SDS011;43082;43.568;22.256;2023-11-21T01:47:30;29.10;;;20.63;;
57225;SDS011;43082;43.568;22.256;2023-11-21T01:49:56;33.63;;;22.63;;
57225;SDS011;43082;43.568;22.256;2023-11-21T01:52:21;32.78;;;21.33;;
57225;SDS011;43082;43.568;22.256;2023-11-21T01:54:46;31.15;;;21.23;;
57225;SDS011;43082;43.568;22.256;2023-11-21T01:57:12;33.33;;;20.77;;
57225;SDS011;43082;43.568;22.256;2023-11-21T01:59:38;32.25;;;21.50;;
57225;SDS011;43082;43.568;22.256;2023-11-21T02:02:07;33.55;;;21.60;;
57225;SDS011;43082;43.568;22.256;2023-11-21T02:04:32;33.67;;;21.38;;
57225;SDS011;43082;43.568;22.256;2023-11-21T02:06:58;35.72;;;22.25;;
57225;SDS011;43082;43.568;22.256;2023-11-21T02:09:27;26.42;;;15.93;;
57225;SDS011;43082;43.568;22.256;2023-11-21T02:11:55;31.20;;;18.00;;
57225;SDS011;43082;43.568;22.256;2023-11-21T02:14:21;26.13;;;15.80;;
57225;SDS011;43082;43.568;22.256;2023-11-21T02:16:50;28.55;;;16.77;;
57225;SDS011;43082;43.568;22.256;2023-11-21T02:19:19;31.35;;;19.30;;
57225;SDS011;43082;43.568;22.256;2023-11-21T02:21:50;37.38;;;24.08;;
57225;SDS011;43082;43.568;22.256;2023-11-21T02:24:18;39.63;;;23.42;;
57225;SDS011;43082;43.568;22.256;2023-11-21T02:26:43;32.80;;;19.90;;
57225;SDS011;43082;43.568;22.256;2023-11-21T02:29:09;35.75;;;22.15;;
57225;SDS011;43082;43.568;22.256;2023-11-21T02:31:37;39.17;;;24.48;;
57225;SDS011;43082;43.568;22.256;2023-11-21T02:34:10;44.53;;;25.83;;
57225;SDS011;43082;43.568;22.256;2023-11-21T02:36:38;39.85;;;22.95;;
57225;SDS011;43082;43.568;22.256;2023-11-21T02:39:03;35.00;;;20.30;;
57225;SDS011;43082;43.568;22.256;2023-11-21T02:41:28;29.13;;;18.38;;
57225;SDS011;43082;43.568;22.256;2023-11-21T02:43:54;23.25;;;15.55;;
57225;SDS011;43082;43.568;22.256;2023-11-21T02:46:19;26.20;;;17.73;;
57225;SDS011;43082;43.568;22.256;2023-11-21T02:48:44;27.77;;;18.17;;
57225;SDS011;43082;43.568;22.256;2023-11-21T02:51:10;27.45;;;19.65;;
57225;SDS011;43082;43.568;22.256;2023-11-21T02:53:35;28.58;;;19.05;;
57225;SDS011;43082;43.568;22.256;2023-11-21T02:56:00;21.98;;;15.95;;
57225;SDS011;43082;43.568;22.256;2023-11-21T02:58:26;21.08;;;14.88;;
57225;SDS011;43082;43.568;22.256;2023-11-21T03:00:51;21.00;;;15.73;;
57225;SDS011;43082;43.568;22.256;2023-11-21T03:03:16;18.65;;;13.65;;
57225;SDS011;43082;43.568;22.256;2023-11-21T03:05:42;20.48;;;12.38;;
57225;SDS011;43082;43.568;22.256;2023-11-21T03:08:07;18.80;;;12.75;;
57225;SDS011;43082;43.568;22.256;2023-11-21T03:10:33;22.05;;;14.40;;
57225;SDS011;43082;43.568;22.256;2023-11-21T03:12:58;19.40;;;12.65;;
57225;SDS011;43082;43.568;22.256;2023-11-21T03:15:23;16.60;;;10.38;;
57225;SDS011;43082;43.568;22.256;2023-11-21T03:17:49;18.67;;;10.70;;
57225;SDS011;43082;43.568;22.256;2023-11-21T03:20:14;18.67;;;10.80;;
57225;SDS011;43082;43.568;22.256;2023-11-21T03:22:41;17.80;;;10.80;;
57225;SDS011;43082;43.568;22.256;2023-11-21T03:25:07;16.60;;;10.70;;
57225;SDS011;43082;43.568;22.256;2023-11-21T03:27:35;17.50;;;11.55;;
57225;SDS011;43082;43.568;22.256;2023-11-21T03:30:00;18.60;;;12.10;;
57225;SDS011;43082;43.568;22.256;2023-11-21T03:32:26;22.33;;;14.80;;
57225;SDS011;43082;43.568;22.256;2023-11-21T03:34:55;21.05;;;13.70;;
57225;SDS011;43082;43.568;22.256;2023-11-21T03:37:23;20.10;;;14.20;;
57225;SDS011;43082;43.568;22.256;2023-11-21T03:39:49;19.23;;;12.85;;
57225;SDS011;43082;43.568;22.256;2023-11-21T03:42:15;18.33;;;11.80;;
57225;SDS011;43082;43.568;22.256;2023-11-21T03:44:40;16.13;;;10.85;;
57225;SDS011;43082;43.568;22.256;2023-11-21T03:47:05;18.70;;;11.75;;
57225;SDS011;43082;43.568;22.256;2023-11-21T03:49:31;18.45;;;11.85;;
57225;SDS011;43082;43.568;22.256;2023-11-21T03:51:56;21.38;;;14.13;;
57225;SDS011;43082;43.568;22.256;2023-11-21T03:54:21;19.77;;;13.48;;
57225;SDS011;43082;43.568;22.256;2023-11-21T03:56:46;22.52;;;16.02;;
57225;SDS011;43082;43.568;22.256;2023-11-21T03:59:12;22.73;;;16.52;;
57225;SDS011;43082;43.568;22.256;2023-11-21T04:01:37;26.35;;;17.15;;
57225;SDS011;43082;43.568;22.256;2023-11-21T04:04:02;23.98;;;17.02;;
57225;SDS011;43082;43.568;22.256;2023-11-21T04:06:28;24.52;;;16.85;;
57225;SDS011;43082;43.568;22.256;2023-11-21T04:08:54;21.80;;;15.52;;
57225;SDS011;43082;43.568;22.256;2023-11-21T04:11:19;22.65;;;14.80;;
57225;SDS011;43082;43.568;22.256;2023-11-21T04:13:44;19.70;;;12.88;;
57225;SDS011;43082;43.568;22.256;2023-11-21T04:16:12;19.13;;;12.82;;
57225;SDS011;43082;43.568;22.256;2023-11-21T04:18:37;18.95;;;13.43;;
57225;SDS011;43082;43.568;22.256;2023-11-21T04:21:04;18.40;;;12.88;;
57225;SDS011;43082;43.568;22.256;2023-11-21T04:23:29;19.98;;;13.10;;
57225;SDS011;43082;43.568;22.256;2023-11-21T04:25:56;18.52;;;12.00;;
57225;SDS011;43082;43.568;22.256;2023-11-21T04:28:22;15.82;;;11.10;;
57225;SDS011;43082;43.568;22.256;2023-11-21T04:30:48;20.65;;;10.20;;
57225;SDS011;43082;43.568;22.256;2023-11-21T04:33:13;19.92;;;12.73;;
57225;SDS011;43082;43.568;22.256;2023-11-21T04:35:38;16.30;;;11.57;;
57225;SDS011;43082;43.568;22.256;2023-11-21T04:38:03;20.80;;;12.48;;
57225;SDS011;43082;43.568;22.256;2023-11-21T04:40:30;19.20;;;12.38;;
57225;SDS011;43082;43.568;22.256;2023-11-21T04:42:55;20.67;;;14.10;;
57225;SDS011;43082;43.568;22.256;2023-11-21T04:45:22;24.13;;;16.13;;
57225;SDS011;43082;43.568;22.256;2023-11-21T04:47:47;21.00;;;14.77;;
57225;SDS011;43082;43.568;22.256;2023-11-21T04:50:12;27.23;;;19.67;;
57225;SDS011;43082;43.568;22.256;2023-11-21T04:52:38;19.35;;;12.48;;
57225;SDS011;43082;43.568;22.256;2023-11-21T04:55:03;19.77;;;12.85;;
57225;SDS011;43082;43.568;22.256;2023-11-21T04:57:28;20.25;;;12.57;;
57225;SDS011;43082;43.568;22.256;2023-11-21T04:59:54;20.33;;;13.02;;
57225;SDS011;43082;43.568;22.256;2023-11-21T05:02:19;20.40;;;12.52;;
57225;SDS011;43082;43.568;22.256;2023-11-21T05:04:46;20.13;;;13.60;;
57225;SDS011;43082;43.568;22.256;2023-11-21T05:07:11;24.00;;;14.85;;
57225;SDS011;43082;43.568;22.256;2023-11-21T05:09:40;31.20;;;22.88;;
57225;SDS011;43082;43.568;22.256;2023-11-21T05:12:05;34.65;;;24.92;;
57225;SDS011;43082;43.568;22.256;2023-11-21T05:14:31;35.65;;;28.00;;
57225;SDS011;43082;43.568;22.256;2023-11-21T05:16:56;29.63;;;21.92;;
57225;SDS011;43082;43.568;22.256;2023-11-21T05:19:21;27.42;;;20.52;;
57225;SDS011;43082;43.568;22.256;2023-11-21T05:21:47;30.45;;;22.08;;
57225;SDS011;43082;43.568;22.256;2023-11-21T05:24:13;27.73;;;18.77;;
57225;SDS011;43082;43.568;22.256;2023-11-21T05:26:38;29.42;;;19.13;;
57225;SDS011;43082;43.568;22.256;2023-11-21T05:29:03;37.42;;;24.10;;
57225;SDS011;43082;43.568;22.256;2023-11-21T05:31:29;41.00;;;28.48;;
57225;SDS011;43082;43.568;22.256;2023-11-21T05:33:54;34.85;;;23.77;;
57225;SDS011;43082;43.568;22.256;2023-11-21T05:36:19;31.20;;;21.55;;
57225;SDS011;43082;43.568;22.256;2023-11-21T05:38:44;27.45;;;20.75;;
57225;SDS011;43082;43.568;22.256;2023-11-21T05:41:10;34.42;;;23.92;;
57225;SDS011;43082;43.568;22.256;2023-11-21T05:43:38;37.58;;;28.70;;
57225;SDS011;43082;43.568;22.256;2023-11-21T05:46:03;38.67;;;24.65;;
57225;SDS011;43082;43.568;22.256;2023-11-21T05:48:29;41.13;;;29.45;;
57225;SDS011;43082;43.568;22.256;2023-11-21T05:50:55;47.72;;;35.28;;
57225;SDS011;43082;43.568;22.256;2023-11-21T05:53:20;45.55;;;33.00;;
57225;SDS011;43082;43.568;22.256;2023-11-21T05:55:46;56.47;;;40.15;;
57225;SDS011;43082;43.568;22.256;2023-11-21T05:58:12;52.95;;;37.17;;
57225;SDS011;43082;43.568;22.256;2023-11-21T06:00:38;33.22;;;22.60;;
57225;SDS011;43082;43.568;22.256;2023-11-21T06:03:04;34.63;;;25.48;;
57225;SDS011;43082;43.568;22.256;2023-11-21T06:05:31;46.10;;;31.90;;
57225;SDS011;43082;43.568;22.256;2023-11-21T06:07:57;54.90;;;40.92;;
57225;SDS011;43082;43.568;22.256;2023-11-21T06:10:26;62.53;;;50.50;;
57225;SDS011;43082;43.568;22.256;2023-11-21T06:12:51;97.50;;;71.15;;
57225;SDS011;43082;43.568;22.256;2023-11-21T06:15:17;106.95;;;74.05;;
57225;SDS011;43082;43.568;22.256;2023-11-21T06:17:44;95.05;;;60.42;;
57225;SDS011;43082;43.568;22.256;2023-11-21T06:20:10;85.88;;;56.17;;
57225;SDS011;43082;43.568;22.256;2023-11-21T06:22:39;46.15;;;33.75;;
57225;SDS011;43082;43.568;22.256;2023-11-21T06:25:05;119.95;;;72.75;;
57225;SDS011;43082;43.568;22.256;2023-11-21T06:27:34;130.88;;;81.70;;
57225;SDS011;43082;43.568;22.256;2023-11-21T06:29:59;90.22;;;61.65;;
57225;SDS011;43082;43.568;22.256;2023-11-21T06:32:25;53.13;;;35.05;;
57225;SDS011;43082;43.568;22.256;2023-11-21T06:34:51;48.10;;;35.90;;
57225;SDS011;43082;43.568;22.256;2023-11-21T06:37:19;48.70;;;37.30;;
57225;SDS011;43082;43.568;22.256;2023-11-21T06:39:46;60.75;;;43.83;;
57225;SDS011;43082;43.568;22.256;2023-11-21T06:42:11;57.53;;;43.67;;
57225;SDS011;43082;43.568;22.256;2023-11-21T06:44:36;61.65;;;44.50;;
57225;SDS011;43082;43.568;22.256;2023-11-21T06:47:02;64.30;;;48.00;;
57225;SDS011;43082;43.568;22.256;2023-11-21T06:49:28;74.93;;;52.92;;
57225;SDS011;43082;43.568;22.256;2023-11-21T06:51:53;63.55;;;46.42;;
57225;SDS011;43082;43.568;22.256;2023-11-21T06:54:20;78.75;;;58.97;;
57225;SDS011;43082;43.568;22.256;2023-11-21T06:56:46;95.53;;;71.65;;
57225;SDS011;43082;43.568;22.256;2023-11-21T06:59:11;73.70;;;56.40;;
57225;SDS011;43082;43.568;22.256;2023-11-21T07:01:37;77.38;;;59.95;;
57225;SDS011;43082;43.568;22.256;2023-11-21T07:04:04;87.97;;;68.60;;
57225;SDS011;43082;43.568;22.256;2023-11-21T07:06:30;84.43;;;64.18;;
57225;SDS011;43082;43.568;22.256;2023-11-21T07:08:55;79.18;;;59.25;;
57225;SDS011;43082;43.568;22.256;2023-11-21T07:11:20;75.05;;;57.22;;
57225;SDS011;43082;43.568;22.256;2023-11-21T07:13:46;68.88;;;51.90;;
57225;SDS011;43082;43.568;22.256;2023-11-21T07:16:11;82.63;;;56.63;;
57225;SDS011;43082;43.568;22.256;2023-11-21T07:18:36;86.28;;;58.08;;
57225;SDS011;43082;43.568;22.256;2023-11-21T07:21:02;95.25;;;66.68;;
57225;SDS011;43082;43.568;22.256;2023-11-21T07:23:28;95.80;;;68.65;;
57225;SDS011;43082;43.568;22.256;2023-11-21T07:25:53;92.63;;;67.85;;
57225;SDS011;43082;43.568;22.256;2023-11-21T07:28:19;85.93;;;62.50;;
57225;SDS011;43082;43.568;22.256;2023-11-21T07:30:44;73.97;;;54.47;;
57225;SDS011;43082;43.568;22.256;2023-11-21T07:33:10;73.70;;;53.83;;
57225;SDS011;43082;43.568;22.256;2023-11-21T07:35:35;75.90;;;58.75;;
57225;SDS011;43082;43.568;22.256;2023-11-21T07:38:00;70.63;;;53.05;;
57225;SDS011;43082;43.568;22.256;2023-11-21T07:40:26;74.22;;;55.30;;
57225;SDS011;43082;43.568;22.256;2023-11-21T07:42:52;72.35;;;51.20;;
57225;SDS011;43082;43.568;22.256;2023-11-21T07:45:17;69.90;;;50.25;;
57225;SDS011;43082;43.568;22.256;2023-11-21T07:47:43;54.33;;;38.50;;
57225;SDS011;43082;43.568;22.256;2023-11-21T07:50:08;54.42;;;39.00;;
57225;SDS011;43082;43.568;22.256;2023-11-21T07:52:34;38.38;;;26.98;;
57225;SDS011;43082;43.568;22.256;2023-11-21T07:54:59;41.08;;;31.83;;
57225;SDS011;43082;43.568;22.256;2023-11-21T07:57:24;54.13;;;38.67;;
57225;SDS011;43082;43.568;22.256;2023-11-21T07:59:49;56.90;;;42.22;;
57225;SDS011;43082;43.568;22.256;2023-11-21T08:02:15;59.25;;;44.80;;
57225;SDS011;43082;43.568;22.256;2023-11-21T08:04:42;71.18;;;51.22;;
57225;SDS011;43082;43.568;22.256;2023-11-21T08:07:08;78.35;;;58.83;;
57225;SDS011;43082;43.568;22.256;2023-11-21T08:09:34;74.13;;;58.38;;
57225;SDS011;43082;43.568;22.256;2023-11-21T08:11:59;74.75;;;54.15;;
57225;SDS011;43082;43.568;22.256;2023-11-21T08:14:25;63.17;;;48.05;;
57225;SDS011;43082;43.568;22.256;2023-11-21T08:16:51;49.63;;;39.25;;
57225;SDS011;43082;43.568;22.256;2023-11-21T08:19:17;48.65;;;38.47;;
57225;SDS011;43082;43.568;22.256;2023-11-21T08:21:43;42.38;;;33.97;;
57225;SDS011;43082;43.568;22.256;2023-11-21T08:24:08;40.38;;;31.33;;
57225;SDS011;43082;43.568;22.256;2023-11-21T08:26:36;44.42;;;32.47;;
57225;SDS011;43082;43.568;22.256;2023-11-21T08:29:01;42.00;;;30.77;;
57225;SDS011;43082;43.568;22.256;2023-11-21T08:31:27;49.15;;;36.60;;
57225;SDS011;43082;43.568;22.256;2023-11-21T08:33:53;41.13;;;30.40;;
57225;SDS011;43082;43.568;22.256;2023-11-21T08:36:22;45.13;;;34.97;;
57225;SDS011;43082;43.568;22.256;2023-11-21T08:38:50;48.15;;;34.83;;
57225;SDS011;43082;43.568;22.256;2023-11-21T08:41:19;54.28;;;38.75;;
57225;SDS011;43082;43.568;22.256;2023-11-21T08:43:49;48.78;;;36.38;;
57225;SDS011;43082;43.568;22.256;2023-11-21T08:46:15;49.03;;;37.05;;
57225;SDS011;43082;43.568;22.256;2023-11-21T08:48:42;64.97;;;45.42;;
57225;SDS011;43082;43.568;22.256;2023-11-21T08:51:09;68.95;;;49.13;;
57225;SDS011;43082;43.568;22.256;2023-11-21T08:53:35;74.50;;;51.63;;
57225;SDS011;43082;43.568;22.256;2023-11-21T08:56:00;71.63;;;50.40;;
57225;SDS011;43082;43.568;22.256;2023-11-21T08:58:26;75.82;;;52.65;;
57225;SDS011;43082;43.568;22.256;2023-11-21T09:00:51;70.40;;;49.30;;
57225;SDS011;43082;43.568;22.256;2023-11-21T09:03:16;78.13;;;55.83;;
57225;SDS011;43082;43.568;22.256;2023-11-21T09:05:42;80.05;;;51.92;;
57225;SDS011;43082;43.568;22.256;2023-11-21T09:08:07;60.05;;;43.17;;
57225;SDS011;43082;43.568;22.256;2023-11-21T09:10:33;52.67;;;39.15;;
57225;SDS011;43082;43.568;22.256;2023-11-21T09:13:00;49.60;;;33.88;;
57225;SDS011;43082;43.568;22.256;2023-11-21T09:15:26;32.67;;;24.63;;
57225;SDS011;43082;43.568;22.256;2023-11-21T09:17:51;51.00;;;38.47;;
57225;SDS011;43082;43.568;22.256;2023-11-21T09:20:16;70.38;;;51.03;;
57225;SDS011;43082;43.568;22.256;2023-11-21T09:22:43;24.95;;;18.85;;
57225;SDS011;43082;43.568;22.256;2023-11-21T09:25:09;30.30;;;22.50;;
57225;SDS011;43082;43.568;22.256;2023-11-21T09:27:35;29.40;;;23.20;;
57225;SDS011;43082;43.568;22.256;2023-11-21T09:30:03;32.72;;;25.50;;
57225;SDS011;43082;43.568;22.256;2023-11-21T09:32:30;32.22;;;24.05;;
57225;SDS011;43082;43.568;22.256;2023-11-21T09:34:55;29.33;;;19.55;;
57225;SDS011;43082;43.568;22.256;2023-11-21T09:37:23;27.95;;;19.80;;
57225;SDS011;43082;43.568;22.256;2023-11-21T09:39:48;32.60;;;24.17;;
57225;SDS011;43082;43.568;22.256;2023-11-21T09:42:19;30.40;;;21.73;;
57225;SDS011;43082;43.568;22.256;2023-11-21T09:47:30;27.48;;;20.50;;
57225;SDS011;43082;43.568;22.256;2023-11-21T09:49:57;36.30;;;27.13;;
57225;SDS011;43082;43.568;22.256;2023-11-21T09:52:26;35.03;;;27.08;;
57225;SDS011;43082;43.568;22.256;2023-11-21T09:54:52;28.98;;;23.15;;
57225;SDS011;43082;43.568;22.256;2023-11-21T09:57:19;30.08;;;23.23;;
57225;SDS011;43082;43.568;22.256;2023-11-21T09:59:44;57.85;;;42.35;;
57225;SDS011;43082;43.568;22.256;2023-11-21T10:02:10;48.13;;;37.67;;
57225;SDS011;43082;43.568;22.256;2023-11-21T10:04:38;40.40;;;29.17;;
57225;SDS011;43082;43.568;22.256;2023-11-21T10:07:04;60.10;;;45.60;;
57225;SDS011;43082;43.568;22.256;2023-11-21T10:09:34;83.57;;;65.07;;
57225;SDS011;43082;43.568;22.256;2023-11-21T10:11:59;57.72;;;44.85;;
57225;SDS011;43082;43.568;22.256;2023-11-21T10:14:25;55.80;;;39.67;;
57225;SDS011;43082;43.568;22.256;2023-11-21T10:16:54;69.32;;;55.97;;
57225;SDS011;43082;43.568;22.256;2023-11-21T10:19:20;58.90;;;47.58;;
57225;SDS011;43082;43.568;22.256;2023-11-21T10:21:46;57.95;;;41.58;;
57225;SDS011;43082;43.568;22.256;2023-11-21T10:24:11;58.65;;;42.53;;
57225;SDS011;43082;43.568;22.256;2023-11-21T10:26:37;51.03;;;35.25;;
57225;SDS011;43082;43.568;22.256;2023-11-21T10:29:03;66.25;;;50.30;;
57225;SDS011;43082;43.568;22.256;2023-11-21T10:31:32;88.78;;;66.55;;
57225;SDS011;43082;43.568;22.256;2023-11-21T10:34:13;53.08;;;40.60;;
57225;SDS011;43082;43.568;22.256;2023-11-21T10:36:39;52.38;;;39.80;;
57225;SDS011;43082;43.568;22.256;2023-11-21T10:39:04;65.63;;;45.85;;
57225;SDS011;43082;43.568;22.256;2023-11-21T10:41:30;60.15;;;45.55;;
57225;SDS011;43082;43.568;22.256;2023-11-21T10:43:55;78.38;;;56.60;;
57225;SDS011;43082;43.568;22.256;2023-11-21T10:46:21;94.70;;;66.97;;
57225;SDS011;43082;43.568;22.256;2023-11-21T10:48:52;82.60;;;59.00;;
57225;SDS011;43082;43.568;22.256;2023-11-21T10:51:17;78.05;;;59.55;;
57225;SDS011;43082;43.568;22.256;2023-11-21T10:53:44;60.25;;;44.53;;
57225;SDS011;43082;43.568;22.256;2023-11-21T10:56:10;62.15;;;48.00;;
57225;SDS011;43082;43.568;22.256;2023-11-21T10:58:42;64.00;;;48.28;;
57225;SDS011;43082;43.568;22.256;2023-11-21T11:01:08;58.17;;;44.83;;
57225;SDS011;43082;43.568;22.256;2023-11-21T11:03:36;57.97;;;44.15;;
57225;SDS011;43082;43.568;22.256;2023-11-21T11:06:02;67.88;;;47.65;;
57225;SDS011;43082;43.568;22.256;2023-11-21T11:08:29;61.53;;;48.50;;
57225;SDS011;43082;43.568;22.256;2023-11-21T11:10:55;70.25;;;52.22;;
57225;SDS011;43082;43.568;22.256;2023-11-21T11:13:20;71.95;;;53.28;;
57225;SDS011;43082;43.568;22.256;2023-11-21T11:15:49;69.95;;;54.60;;
57225;SDS011;43082;43.568;22.256;2023-11-21T11:18:15;33.40;;;24.25;;
57225;SDS011;43082;43.568;22.256;2023-11-21T11:20:41;33.75;;;25.85;;
57225;SDS011;43082;43.568;22.256;2023-11-21T11:25:53;17.35;;;10.00;;
57225;SDS011;43082;43.568;22.256;2023-11-21T11:28:29;10.52;;;6.82;;
57225;SDS011;43082;43.568;22.256;2023-11-21T11:38:28;17.58;;;11.98;;
57225;SDS011;43082;43.568;22.256;2023-11-21T11:40:56;18.15;;;12.57;;
57225;SDS011;43082;43.568;22.256;2023-11-21T11:43:25;23.25;;;15.00;;
57225;SDS011;43082;43.568;22.256;2023-11-21T11:45:51;17.83;;;12.88;;
57225;SDS011;43082;43.568;22.256;2023-11-21T11:48:21;24.25;;;15.45;;
57225;SDS011;43082;43.568;22.256;2023-11-21T11:51:02;22.00;;;16.02;;
57225;SDS011;43082;43.568;22.256;2023-11-21T11:53:28;21.80;;;15.30;;
57225;SDS011;43082;43.568;22.256;2023-11-21T11:55:58;17.58;;;12.15;;
57225;SDS011;43082;43.568;22.256;2023-11-21T11:58:42;22.00;;;15.63;;
57225;SDS011;43082;43.568;22.256;2023-11-21T12:01:08;20.60;;;13.73;;
57225;SDS011;43082;43.568;22.256;2023-11-21T12:03:33;27.30;;;19.85;;
57225;SDS011;43082;43.568;22.256;2023-11-21T12:05:58;32.53;;;23.88;;
57225;SDS011;43082;43.568;22.256;2023-11-21T12:08:25;29.60;;;19.67;;
57225;SDS011;43082;43.568;22.256;2023-11-21T12:10:56;26.77;;;17.77;;
57225;SDS011;43082;43.568;22.256;2023-11-21T12:13:22;22.83;;;16.08;;
57225;SDS011;43082;43.568;22.256;2023-11-21T12:15:48;25.05;;;17.52;;
57225;SDS011;43082;43.568;22.256;2023-11-21T12:18:13;31.98;;;22.58;;
57225;SDS011;43082;43.568;22.256;2023-11-21T12:20:39;30.75;;;22.27;;
57225;SDS011;43082;43.568;22.256;2023-11-21T12:23:06;41.45;;;29.52;;
57225;SDS011;43082;43.568;22.256;2023-11-21T12:25:31;41.80;;;28.10;;
57225;SDS011;43082;43.568;22.256;2023-11-21T12:27:58;52.20;;;34.90;;
57225;SDS011;43082;43.568;22.256;2023-11-21T12:30:24;47.83;;;34.47;;
57225;SDS011;43082;43.568;22.256;2023-11-21T12:32:54;41.42;;;31.83;;
57225;SDS011;43082;43.568;22.256;2023-11-21T12:35:21;50.40;;;39.58;;
57225;SDS011;43082;43.568;22.256;2023-11-21T12:37:47;43.80;;;33.33;;
57225;SDS011;43082;43.568;22.256;2023-11-21T12:40:13;24.58;;;18.67;;
57225;SDS011;43082;43.568;22.256;2023-11-21T12:42:41;29.25;;;19.10;;
57225;SDS011;43082;43.568;22.256;2023-11-21T12:47:41;19.98;;;13.95;;
57225;SDS011;43082;43.568;22.256;2023-11-21T12:50:06;17.38;;;10.80;;
57225;SDS011;43082;43.568;22.256;2023-11-21T12:52:39;19.38;;;12.95;;
57225;SDS011;43082;43.568;22.256;2023-11-21T12:55:04;27.42;;;17.40;;
57225;SDS011;43082;43.568;22.256;2023-11-21T12:57:30;27.33;;;18.25;;
57225;SDS011;43082;43.568;22.256;2023-11-21T12:59:59;27.75;;;18.27;;
57225;SDS011;43082;43.568;22.256;2023-11-21T13:02:30;36.25;;;22.65;;
57225;SDS011;43082;43.568;22.256;2023-11-21T13:04:56;48.15;;;33.47;;
57225;SDS011;43082;43.568;22.256;2023-11-21T13:07:23;85.47;;;62.38;;
57225;SDS011;43082;43.568;22.256;2023-11-21T13:09:51;102.88;;;77.55;;
57225;SDS011;43082;43.568;22.256;2023-11-21T13:12:17;113.60;;;86.05;;
57225;SDS011;43082;43.568;22.256;2023-11-21T13:14:45;101.00;;;74.32;;
57225;SDS011;43082;43.568;22.256;2023-11-21T13:17:11;69.68;;;52.05;;
57225;SDS011;43082;43.568;22.256;2023-11-21T13:19:37;81.47;;;62.90;;
57225;SDS011;43082;43.568;22.256;2023-11-21T13:22:03;86.88;;;66.82;;
57225;SDS011;43082;43.568;22.256;2023-11-21T13:24:29;87.00;;;65.43;;
57225;SDS011;43082;43.568;22.256;2023-11-21T13:26:54;76.68;;;57.92;;
57225;SDS011;43082;43.568;22.256;2023-11-21T13:29:20;90.20;;;70.90;;
57225;SDS011;43082;43.568;22.256;2023-11-21T13:31:46;156.80;;;124.28;;
57225;SDS011;43082;43.568;22.256;2023-11-21T13:34:11;100.28;;;79.53;;
57225;SDS011;43082;43.568;22.256;2023-11-21T13:36:39;78.80;;;60.53;;
57225;SDS011;43082;43.568;22.256;2023-11-21T13:39:07;72.13;;;60.05;;
57225;SDS011;43082;43.568;22.256;2023-11-21T13:41:36;73.25;;;58.65;;
57225;SDS011;43082;43.568;22.256;2023-11-21T13:44:03;92.45;;;76.80;;
57225;SDS011;43082;43.568;22.256;2023-11-21T13:46:40;142.40;;;104.90;;
57225;SDS011;43082;43.568;22.256;2023-11-21T13:49:06;119.93;;;92.10;;
57225;SDS011;43082;43.568;22.256;2023-11-21T13:51:36;109.93;;;84.30;;
57225;SDS011;43082;43.568;22.256;2023-11-21T13:54:09;124.57;;;90.30;;
57225;SDS011;43082;43.568;22.256;2023-11-21T13:56:37;116.80;;;83.47;;
57225;SDS011;43082;43.568;22.256;2023-11-21T13:59:05;101.28;;;75.78;;
57225;SDS011;43082;43.568;22.256;2023-11-21T14:01:48;106.20;;;82.28;;
57225;SDS011;43082;43.568;22.256;2023-11-21T14:04:25;138.90;;;111.53;;
57225;SDS011;43082;43.568;22.256;2023-11-21T14:06:56;141.30;;;111.97;;
57225;SDS011;43082;43.568;22.256;2023-11-21T14:09:22;154.85;;;123.28;;
57225;SDS011;43082;43.568;22.256;2023-11-21T14:11:50;162.80;;;125.45;;
57225;SDS011;43082;43.568;22.256;2023-11-21T14:14:16;152.60;;;122.13;;
57225;SDS011;43082;43.568;22.256;2023-11-21T14:16:43;154.40;;;124.15;;
57225;SDS011;43082;43.568;22.256;2023-11-21T14:19:08;177.07;;;139.52;;